sensor_id;sensor_type;location;lat;lon;timestamp;P1;durP1;ratioP1;P2;durP2;ratioP2
4563;SDS011;2294;51.818;8.484;2024-01-30T00:01:56;16.20;;;8.37;;
4563;SDS011;2294;51.818;8.484;2024-01-30T00:04:23;18.00;;;9.27;;
4563;SDS011;2294;51.818;8.484;2024-01-30T00:06:50;12.23;;;7.87;;
4563;SDS011;2294;51.818;8.484;2024-01-30T00:09:19;18.57;;;8.90;;
4563;SDS011;2294;51.818;8.484;2024-01-30T00:11:46;13.60;;;8.57;;
4563;SDS011;2294;51.818;8.484;2024-01-30T00:14:13;12.07;;;6.90;;
4563;SDS011;2294;51.818;8.484;2024-01-30T00:16:42;12.47;;;7.70;;
4563;SDS011;2294;51.818;8.484;2024-01-30T00:19:09;12.53;;;7.83;;
4563;SDS011;2294;51.818;8.484;2024-01-30T00:21:36;12.00;;;7.30;;
4563;SDS011;2294;51.818;8.484;2024-01-30T00:24:03;14.37;;;9.03;;
4563;SDS011;2294;51.818;8.484;2024-01-30T00:26:30;13.20;;;7.83;;
4563;SDS011;2294;51.818;8.484;2024-01-30T00:28:58;15.10;;;7.57;;
4563;SDS011;2294;51.818;8.484;2024-01-30T00:31:25;10.10;;;7.30;;
4563;SDS011;2294;51.818;8.484;2024-01-30T00:33:53;11.93;;;7.37;;
4563;SDS011;2294;51.818;8.484;2024-01-30T00:36:20;12.50;;;7.70;;
4563;SDS011;2294;51.818;8.484;2024-01-30T00:38:48;11.00;;;7.20;;
4563;SDS011;2294;51.818;8.484;2024-01-30T00:41:17;17.20;;;8.10;;
4563;SDS011;2294;51.818;8.484;2024-01-30T00:43:44;16.03;;;8.10;;
4563;SDS011;2294;51.818;8.484;2024-01-30T00:46:11;14.37;;;8.93;;
4563;SDS011;2294;51.818;8.484;2024-01-30T00:48:38;11.77;;;7.63;;
4563;SDS011;2294;51.818;8.484;2024-01-30T00:51:07;11.33;;;7.00;;
4563;SDS011;2294;51.818;8.484;2024-01-30T00:53:34;10.60;;;6.67;;
4563;SDS011;2294;51.818;8.484;2024-01-30T00:56:01;10.83;;;6.30;;
4563;SDS011;2294;51.818;8.484;2024-01-30T00:58:28;13.37;;;6.70;;
4563;SDS011;2294;51.818;8.484;2024-01-30T01:00:55;10.50;;;7.60;;
4563;SDS011;2294;51.818;8.484;2024-01-30T01:03:22;16.37;;;8.10;;
4563;SDS011;2294;51.818;8.484;2024-01-30T01:05:50;15.03;;;7.60;;
4563;SDS011;2294;51.818;8.484;2024-01-30T01:08:18;12.30;;;6.83;;
4563;SDS011;2294;51.818;8.484;2024-01-30T01:10:45;19.40;;;7.40;;
4563;SDS011;2294;51.818;8.484;2024-01-30T01:13:13;11.03;;;7.17;;
4563;SDS011;2294;51.818;8.484;2024-01-30T01:15:40;9.80;;;6.40;;
4563;SDS011;2294;51.818;8.484;2024-01-30T01:18:07;14.20;;;8.00;;
4563;SDS011;2294;51.818;8.484;2024-01-30T01:20:34;22.10;;;7.23;;
4563;SDS011;2294;51.818;8.484;2024-01-30T01:23:01;11.53;;;7.60;;
4563;SDS011;2294;51.818;8.484;2024-01-30T01:25:30;15.70;;;8.00;;
4563;SDS011;2294;51.818;8.484;2024-01-30T01:27:57;12.33;;;7.97;;
4563;SDS011;2294;51.818;8.484;2024-01-30T01:30:26;14.30;;;7.37;;
4563;SDS011;2294;51.818;8.484;2024-01-30T01:32:54;13.70;;;7.50;;
4563;SDS011;2294;51.818;8.484;2024-01-30T01:35:22;12.47;;;7.33;;
4563;SDS011;2294;51.818;8.484;2024-01-30T01:37:50;12.70;;;7.27;;
4563;SDS011;2294;51.818;8.484;2024-01-30T01:40:20;14.70;;;8.50;;
4563;SDS011;2294;51.818;8.484;2024-01-30T01:42:49;16.67;;;8.67;;
4563;SDS011;2294;51.818;8.484;2024-01-30T01:45:16;9.83;;;6.77;;
4563;SDS011;2294;51.818;8.484;2024-01-30T01:47:44;14.57;;;7.20;;
4563;SDS011;2294;51.818;8.484;2024-01-30T01:50:12;9.03;;;6.77;;
4563;SDS011;2294;51.818;8.484;2024-01-30T01:52:40;9.40;;;7.10;;
4563;SDS011;2294;51.818;8.484;2024-01-30T01:55:08;11.93;;;7.53;;
4563;SDS011;2294;51.818;8.484;2024-01-30T01:57:35;13.23;;;7.43;;
4563;SDS011;2294;51.818;8.484;2024-01-30T02:00:05;11.67;;;7.43;;
4563;SDS011;2294;51.818;8.484;2024-01-30T02:02:32;10.87;;;6.93;;
4563;SDS011;2294;51.818;8.484;2024-01-30T02:05:01;12.00;;;8.33;;
4563;SDS011;2294;51.818;8.484;2024-01-30T02:07:29;10.13;;;6.77;;
4563;SDS011;2294;51.818;8.484;2024-01-30T02:09:56;18.60;;;7.07;;
4563;SDS011;2294;51.818;8.484;2024-01-30T02:12:23;9.80;;;6.37;;
4563;SDS011;2294;51.818;8.484;2024-01-30T02:14:50;12.30;;;6.90;;
4563;SDS011;2294;51.818;8.484;2024-01-30T02:17:19;12.50;;;7.53;;
4563;SDS011;2294;51.818;8.484;2024-01-30T02:19:48;10.27;;;7.07;;
4563;SDS011;2294;51.818;8.484;2024-01-30T02:22:16;11.07;;;6.70;;
4563;SDS011;2294;51.818;8.484;2024-01-30T02:24:44;10.17;;;6.67;;
4563;SDS011;2294;51.818;8.484;2024-01-30T02:27:11;13.43;;;7.00;;
4563;SDS011;2294;51.818;8.484;2024-01-30T02:29:38;14.27;;;7.40;;
4563;SDS011;2294;51.818;8.484;2024-01-30T02:32:06;10.60;;;7.77;;
4563;SDS011;2294;51.818;8.484;2024-01-30T02:34:33;13.90;;;7.70;;
4563;SDS011;2294;51.818;8.484;2024-01-30T02:37:00;14.60;;;6.50;;
4563;SDS011;2294;51.818;8.484;2024-01-30T02:39:29;11.90;;;6.10;;
4563;SDS011;2294;51.818;8.484;2024-01-30T02:41:56;11.37;;;7.23;;
4563;SDS011;2294;51.818;8.484;2024-01-30T02:44:23;16.77;;;8.10;;
4563;SDS011;2294;51.818;8.484;2024-01-30T02:46:50;11.13;;;6.50;;
4563;SDS011;2294;51.818;8.484;2024-01-30T02:49:19;10.83;;;5.93;;
4563;SDS011;2294;51.818;8.484;2024-01-30T02:51:46;13.47;;;7.03;;
4563;SDS011;2294;51.818;8.484;2024-01-30T02:54:13;14.10;;;7.13;;
4563;SDS011;2294;51.818;8.484;2024-01-30T02:56:42;23.50;;;8.50;;
4563;SDS011;2294;51.818;8.484;2024-01-30T02:59:09;10.40;;;6.57;;
4563;SDS011;2294;51.818;8.484;2024-01-30T03:01:42;11.07;;;6.50;;
4563;SDS011;2294;51.818;8.484;2024-01-30T03:04:10;11.03;;;7.30;;
4563;SDS011;2294;51.818;8.484;2024-01-30T03:06:37;13.00;;;8.10;;
4563;SDS011;2294;51.818;8.484;2024-01-30T03:09:04;14.63;;;8.30;;
4563;SDS011;2294;51.818;8.484;2024-01-30T03:11:32;11.63;;;6.73;;
4563;SDS011;2294;51.818;8.484;2024-01-30T03:14:00;11.40;;;7.47;;
4563;SDS011;2294;51.818;8.484;2024-01-30T03:16:29;15.70;;;7.93;;
4563;SDS011;2294;51.818;8.484;2024-01-30T03:18:56;12.70;;;7.50;;
4563;SDS011;2294;51.818;8.484;2024-01-30T03:21:23;13.73;;;6.83;;
4563;SDS011;2294;51.818;8.484;2024-01-30T03:23:51;16.77;;;8.20;;
4563;SDS011;2294;51.818;8.484;2024-01-30T03:26:18;14.07;;;7.20;;
4563;SDS011;2294;51.818;8.484;2024-01-30T03:28:45;18.67;;;8.47;;
4563;SDS011;2294;51.818;8.484;2024-01-30T03:31:14;13.57;;;7.83;;
4563;SDS011;2294;51.818;8.484;2024-01-30T03:33:41;12.33;;;7.60;;
4563;SDS011;2294;51.818;8.484;2024-01-30T03:36:08;10.33;;;6.30;;
4563;SDS011;2294;51.818;8.484;2024-01-30T03:38:35;11.83;;;7.90;;
4563;SDS011;2294;51.818;8.484;2024-01-30T03:41:03;11.57;;;7.47;;
4563;SDS011;2294;51.818;8.484;2024-01-30T03:43:30;20.20;;;8.67;;
4563;SDS011;2294;51.818;8.484;2024-01-30T03:45:57;13.70;;;7.80;;
4563;SDS011;2294;51.818;8.484;2024-01-30T03:48:26;13.90;;;8.20;;
4563;SDS011;2294;51.818;8.484;2024-01-30T03:50:53;13.50;;;8.60;;
4563;SDS011;2294;51.818;8.484;2024-01-30T03:53:20;14.00;;;8.20;;
4563;SDS011;2294;51.818;8.484;2024-01-30T03:55:47;16.20;;;9.20;;
4563;SDS011;2294;51.818;8.484;2024-01-30T03:58:14;17.70;;;8.87;;
4563;SDS011;2294;51.818;8.484;2024-01-30T04:00:42;14.20;;;8.00;;
4563;SDS011;2294;51.818;8.484;2024-01-30T04:03:09;11.50;;;6.77;;
4563;SDS011;2294;51.818;8.484;2024-01-30T04:05:38;13.17;;;7.70;;
4563;SDS011;2294;51.818;8.484;2024-01-30T04:08:05;13.43;;;8.10;;
4563;SDS011;2294;51.818;8.484;2024-01-30T04:10:32;13.57;;;6.93;;
4563;SDS011;2294;51.818;8.484;2024-01-30T04:12:59;12.57;;;7.67;;
4563;SDS011;2294;51.818;8.484;2024-01-30T04:15:27;9.47;;;7.33;;
4563;SDS011;2294;51.818;8.484;2024-01-30T04:17:56;11.50;;;7.00;;
4563;SDS011;2294;51.818;8.484;2024-01-30T04:20:24;15.23;;;8.93;;
4563;SDS011;2294;51.818;8.484;2024-01-30T04:22:52;12.67;;;7.73;;
4563;SDS011;2294;51.818;8.484;2024-01-30T04:25:20;12.20;;;7.63;;
4563;SDS011;2294;51.818;8.484;2024-01-30T04:27:47;14.57;;;8.00;;
4563;SDS011;2294;51.818;8.484;2024-01-30T04:30:14;10.80;;;7.00;;
4563;SDS011;2294;51.818;8.484;2024-01-30T04:32:41;13.83;;;7.93;;
4563;SDS011;2294;51.818;8.484;2024-01-30T04:35:08;11.97;;;7.80;;
4563;SDS011;2294;51.818;8.484;2024-01-30T04:37:35;10.33;;;6.60;;
4563;SDS011;2294;51.818;8.484;2024-01-30T04:40:04;11.63;;;7.37;;
4563;SDS011;2294;51.818;8.484;2024-01-30T04:42:32;12.77;;;7.80;;
4563;SDS011;2294;51.818;8.484;2024-01-30T04:44:59;15.80;;;8.60;;
4563;SDS011;2294;51.818;8.484;2024-01-30T04:47:27;10.40;;;6.43;;
4563;SDS011;2294;51.818;8.484;2024-01-30T04:49:54;11.43;;;7.40;;
4563;SDS011;2294;51.818;8.484;2024-01-30T04:52:21;10.10;;;6.90;;
4563;SDS011;2294;51.818;8.484;2024-01-30T04:54:49;11.70;;;7.60;;
4563;SDS011;2294;51.818;8.484;2024-01-30T04:57:17;13.10;;;7.63;;
4563;SDS011;2294;51.818;8.484;2024-01-30T04:59:44;13.17;;;7.23;;
4563;SDS011;2294;51.818;8.484;2024-01-30T05:02:11;11.80;;;7.40;;
4563;SDS011;2294;51.818;8.484;2024-01-30T05:04:40;10.83;;;7.43;;
4563;SDS011;2294;51.818;8.484;2024-01-30T05:07:07;16.90;;;9.27;;
4563;SDS011;2294;51.818;8.484;2024-01-30T05:09:34;10.47;;;7.03;;
4563;SDS011;2294;51.818;8.484;2024-01-30T05:12:02;15.27;;;8.80;;
4563;SDS011;2294;51.818;8.484;2024-01-30T05:14:30;10.53;;;7.23;;
4563;SDS011;2294;51.818;8.484;2024-01-30T05:16:57;12.27;;;8.23;;
4563;SDS011;2294;51.818;8.484;2024-01-30T05:19:25;14.30;;;7.63;;
4563;SDS011;2294;51.818;8.484;2024-01-30T05:21:52;14.10;;;8.17;;
4563;SDS011;2294;51.818;8.484;2024-01-30T05:24:19;11.33;;;6.50;;
4563;SDS011;2294;51.818;8.484;2024-01-30T05:26:46;14.87;;;8.37;;
4563;SDS011;2294;51.818;8.484;2024-01-30T05:29:13;10.90;;;6.83;;
4563;SDS011;2294;51.818;8.484;2024-01-30T05:31:41;21.20;;;8.23;;
4563;SDS011;2294;51.818;8.484;2024-01-30T05:34:09;17.43;;;8.47;;
4563;SDS011;2294;51.818;8.484;2024-01-30T05:36:36;12.10;;;7.43;;
4563;SDS011;2294;51.818;8.484;2024-01-30T05:39:03;14.73;;;7.80;;
4563;SDS011;2294;51.818;8.484;2024-01-30T05:41:30;13.90;;;7.00;;
4563;SDS011;2294;51.818;8.484;2024-01-30T05:43:57;15.30;;;8.50;;
4563;SDS011;2294;51.818;8.484;2024-01-30T05:46:24;13.00;;;8.47;;
4563;SDS011;2294;51.818;8.484;2024-01-30T05:48:53;12.63;;;8.53;;
4563;SDS011;2294;51.818;8.484;2024-01-30T05:51:20;18.23;;;8.70;;
4563;SDS011;2294;51.818;8.484;2024-01-30T05:53:47;17.20;;;8.97;;
4563;SDS011;2294;51.818;8.484;2024-01-30T05:56:14;13.00;;;7.97;;
4563;SDS011;2294;51.818;8.484;2024-01-30T05:58:41;18.90;;;8.43;;
4563;SDS011;2294;51.818;8.484;2024-01-30T06:01:09;12.13;;;7.80;;
4563;SDS011;2294;51.818;8.484;2024-01-30T06:03:36;14.40;;;6.97;;
4563;SDS011;2294;51.818;8.484;2024-01-30T06:06:05;13.77;;;8.07;;
4563;SDS011;2294;51.818;8.484;2024-01-30T06:08:32;14.30;;;8.07;;
4563;SDS011;2294;51.818;8.484;2024-01-30T06:10:59;12.07;;;7.37;;
4563;SDS011;2294;51.818;8.484;2024-01-30T06:13:26;10.07;;;6.90;;
4563;SDS011;2294;51.818;8.484;2024-01-30T06:15:56;12.97;;;7.80;;
4563;SDS011;2294;51.818;8.484;2024-01-30T06:18:23;11.97;;;7.70;;
4563;SDS011;2294;51.818;8.484;2024-01-30T06:20:52;13.00;;;7.10;;
4563;SDS011;2294;51.818;8.484;2024-01-30T06:23:20;14.13;;;8.60;;
4563;SDS011;2294;51.818;8.484;2024-01-30T06:25:47;14.57;;;8.10;;
4563;SDS011;2294;51.818;8.484;2024-01-30T06:28:14;15.13;;;7.67;;
4563;SDS011;2294;51.818;8.484;2024-01-30T06:30:42;13.20;;;7.10;;
4563;SDS011;2294;51.818;8.484;2024-01-30T06:33:11;10.97;;;7.33;;
4563;SDS011;2294;51.818;8.484;2024-01-30T06:35:38;9.93;;;6.70;;
4563;SDS011;2294;51.818;8.484;2024-01-30T06:38:05;15.00;;;8.40;;
4563;SDS011;2294;51.818;8.484;2024-01-30T06:40:34;14.17;;;7.80;;
4563;SDS011;2294;51.818;8.484;2024-01-30T06:43:01;13.47;;;7.27;;
4563;SDS011;2294;51.818;8.484;2024-01-30T06:45:29;12.73;;;7.80;;
4563;SDS011;2294;51.818;8.484;2024-01-30T06:47:56;11.60;;;6.63;;
4563;SDS011;2294;51.818;8.484;2024-01-30T06:50:23;9.53;;;6.73;;
4563;SDS011;2294;51.818;8.484;2024-01-30T06:52:50;16.40;;;7.40;;
4563;SDS011;2294;51.818;8.484;2024-01-30T06:55:17;10.70;;;6.63;;
4563;SDS011;2294;51.818;8.484;2024-01-30T06:57:46;11.37;;;7.13;;
4563;SDS011;2294;51.818;8.484;2024-01-30T07:00:13;13.93;;;6.77;;
4563;SDS011;2294;51.818;8.484;2024-01-30T07:02:41;12.77;;;6.80;;
4563;SDS011;2294;51.818;8.484;2024-01-30T07:05:09;14.93;;;7.30;;
4563;SDS011;2294;51.818;8.484;2024-01-30T07:07:36;11.00;;;6.83;;
4563;SDS011;2294;51.818;8.484;2024-01-30T07:10:04;17.00;;;7.40;;
4563;SDS011;2294;51.818;8.484;2024-01-30T07:12:32;12.93;;;6.57;;
4563;SDS011;2294;51.818;8.484;2024-01-30T07:15:01;12.37;;;7.33;;
4563;SDS011;2294;51.818;8.484;2024-01-30T07:17:28;11.53;;;7.13;;
4563;SDS011;2294;51.818;8.484;2024-01-30T07:19:55;12.60;;;6.90;;
4563;SDS011;2294;51.818;8.484;2024-01-30T07:22:22;11.87;;;7.43;;
4563;SDS011;2294;51.818;8.484;2024-01-30T07:24:49;13.43;;;7.87;;
4563;SDS011;2294;51.818;8.484;2024-01-30T07:27:17;11.93;;;6.80;;
4563;SDS011;2294;51.818;8.484;2024-01-30T07:29:44;11.93;;;7.07;;
4563;SDS011;2294;51.818;8.484;2024-01-30T07:32:12;14.03;;;6.97;;
4563;SDS011;2294;51.818;8.484;2024-01-30T07:34:39;9.47;;;5.57;;
4563;SDS011;2294;51.818;8.484;2024-01-30T07:37:07;12.37;;;6.77;;
4563;SDS011;2294;51.818;8.484;2024-01-30T07:39:34;10.70;;;6.20;;
4563;SDS011;2294;51.818;8.484;2024-01-30T07:42:02;14.60;;;7.70;;
4563;SDS011;2294;51.818;8.484;2024-01-30T07:44:29;11.73;;;7.13;;
4563;SDS011;2294;51.818;8.484;2024-01-30T07:46:56;12.03;;;7.80;;
4563;SDS011;2294;51.818;8.484;2024-01-30T07:49:25;12.30;;;6.87;;
4563;SDS011;2294;51.818;8.484;2024-01-30T07:51:53;17.00;;;8.77;;
4563;SDS011;2294;51.818;8.484;2024-01-30T07:54:20;12.40;;;6.70;;
4563;SDS011;2294;51.818;8.484;2024-01-30T07:56:48;12.50;;;6.80;;
4563;SDS011;2294;51.818;8.484;2024-01-30T07:59:15;12.10;;;7.23;;
4563;SDS011;2294;51.818;8.484;2024-01-30T08:01:43;11.57;;;7.43;;
4563;SDS011;2294;51.818;8.484;2024-01-30T08:04:10;13.63;;;8.40;;
4563;SDS011;2294;51.818;8.484;2024-01-30T08:06:39;11.93;;;7.00;;
4563;SDS011;2294;51.818;8.484;2024-01-30T08:09:06;14.43;;;8.07;;
4563;SDS011;2294;51.818;8.484;2024-01-30T08:11:33;16.13;;;8.57;;
4563;SDS011;2294;51.818;8.484;2024-01-30T08:14:00;13.00;;;8.70;;
4563;SDS011;2294;51.818;8.484;2024-01-30T08:16:28;11.67;;;7.80;;
4563;SDS011;2294;51.818;8.484;2024-01-30T08:18:55;14.60;;;8.30;;
4563;SDS011;2294;51.818;8.484;2024-01-30T08:21:22;11.53;;;7.53;;
4563;SDS011;2294;51.818;8.484;2024-01-30T08:23:51;11.40;;;7.47;;
4563;SDS011;2294;51.818;8.484;2024-01-30T08:26:18;15.00;;;8.20;;
4563;SDS011;2294;51.818;8.484;2024-01-30T08:28:46;16.23;;;8.10;;
4563;SDS011;2294;51.818;8.484;2024-01-30T08:31:13;18.93;;;7.90;;
4563;SDS011;2294;51.818;8.484;2024-01-30T08:33:40;13.73;;;7.20;;
4563;SDS011;2294;51.818;8.484;2024-01-30T08:36:07;11.40;;;7.33;;
4563;SDS011;2294;51.818;8.484;2024-01-30T08:38:34;13.27;;;7.37;;
4563;SDS011;2294;51.818;8.484;2024-01-30T08:41:03;12.80;;;7.30;;
4563;SDS011;2294;51.818;8.484;2024-01-30T08:43:30;12.00;;;6.30;;
4563;SDS011;2294;51.818;8.484;2024-01-30T08:45:58;14.53;;;8.17;;
4563;SDS011;2294;51.818;8.484;2024-01-30T08:48:26;14.03;;;8.87;;
4563;SDS011;2294;51.818;8.484;2024-01-30T08:50:53;12.73;;;7.70;;
4563;SDS011;2294;51.818;8.484;2024-01-30T08:53:20;12.33;;;7.40;;
4563;SDS011;2294;51.818;8.484;2024-01-30T08:55:47;11.67;;;7.77;;
4563;SDS011;2294;51.818;8.484;2024-01-30T08:58:16;10.77;;;7.20;;
4563;SDS011;2294;51.818;8.484;2024-01-30T09:00:44;11.30;;;6.80;;
4563;SDS011;2294;51.818;8.484;2024-01-30T09:03:12;11.33;;;6.93;;
4563;SDS011;2294;51.818;8.484;2024-01-30T09:05:39;14.47;;;7.50;;
4563;SDS011;2294;51.818;8.484;2024-01-30T09:08:06;13.20;;;6.80;;
4563;SDS011;2294;51.818;8.484;2024-01-30T09:10:33;12.33;;;7.37;;
4563;SDS011;2294;51.818;8.484;2024-01-30T09:13:00;12.50;;;7.03;;
4563;SDS011;2294;51.818;8.484;2024-01-30T09:15:29;14.30;;;8.00;;
4563;SDS011;2294;51.818;8.484;2024-01-30T09:17:56;11.43;;;7.50;;
4563;SDS011;2294;51.818;8.484;2024-01-30T09:20:23;10.10;;;7.40;;
4563;SDS011;2294;51.818;8.484;2024-01-30T09:22:50;11.83;;;7.27;;
4563;SDS011;2294;51.818;8.484;2024-01-30T09:25:17;13.33;;;6.60;;
4563;SDS011;2294;51.818;8.484;2024-01-30T09:27:44;13.83;;;7.27;;
4563;SDS011;2294;51.818;8.484;2024-01-30T09:30:12;14.57;;;7.97;;
4563;SDS011;2294;51.818;8.484;2024-01-30T09:32:40;16.97;;;8.67;;
4563;SDS011;2294;51.818;8.484;2024-01-30T09:35:08;12.87;;;8.33;;
4563;SDS011;2294;51.818;8.484;2024-01-30T09:37:35;16.00;;;7.40;;
4563;SDS011;2294;51.818;8.484;2024-01-30T09:40:03;13.23;;;7.03;;
4563;SDS011;2294;51.818;8.484;2024-01-30T09:42:33;12.93;;;7.20;;
4563;SDS011;2294;51.818;8.484;2024-01-30T09:45:00;13.30;;;8.63;;
4563;SDS011;2294;51.818;8.484;2024-01-30T09:47:28;11.87;;;6.30;;
4563;SDS011;2294;51.818;8.484;2024-01-30T09:49:58;14.93;;;6.90;;
4563;SDS011;2294;51.818;8.484;2024-01-30T09:52:26;11.37;;;7.80;;
4563;SDS011;2294;51.818;8.484;2024-01-30T09:54:53;12.67;;;6.43;;
4563;SDS011;2294;51.818;8.484;2024-01-30T09:57:21;11.30;;;6.77;;
4563;SDS011;2294;51.818;8.484;2024-01-30T09:59:48;14.30;;;7.70;;
4563;SDS011;2294;51.818;8.484;2024-01-30T10:02:17;16.30;;;7.37;;
4563;SDS011;2294;51.818;8.484;2024-01-30T10:04:45;19.13;;;7.70;;
4563;SDS011;2294;51.818;8.484;2024-01-30T10:07:15;16.50;;;8.40;;
4563;SDS011;2294;51.818;8.484;2024-01-30T10:09:45;15.23;;;7.90;;
4563;SDS011;2294;51.818;8.484;2024-01-30T10:12:14;13.27;;;7.70;;
4563;SDS011;2294;51.818;8.484;2024-01-30T10:14:41;20.67;;;9.67;;
4563;SDS011;2294;51.818;8.484;2024-01-30T10:17:11;15.47;;;8.90;;
4563;SDS011;2294;51.818;8.484;2024-01-30T10:19:39;20.07;;;9.70;;
4563;SDS011;2294;51.818;8.484;2024-01-30T10:22:07;18.63;;;10.30;;
4563;SDS011;2294;51.818;8.484;2024-01-30T10:24:36;16.70;;;9.63;;
4563;SDS011;2294;51.818;8.484;2024-01-30T10:27:05;13.87;;;8.07;;
4563;SDS011;2294;51.818;8.484;2024-01-30T10:29:33;11.90;;;7.57;;
4563;SDS011;2294;51.818;8.484;2024-01-30T10:32:00;21.70;;;8.83;;
4563;SDS011;2294;51.818;8.484;2024-01-30T10:34:28;13.03;;;9.00;;
4563;SDS011;2294;51.818;8.484;2024-01-30T10:36:59;17.40;;;9.73;;
4563;SDS011;2294;51.818;8.484;2024-01-30T10:39:28;10.93;;;8.00;;
4563;SDS011;2294;51.818;8.484;2024-01-30T10:41:59;11.80;;;8.30;;
4563;SDS011;2294;51.818;8.484;2024-01-30T10:44:34;16.13;;;8.73;;
4563;SDS011;2294;51.818;8.484;2024-01-30T10:47:05;13.67;;;7.80;;
4563;SDS011;2294;51.818;8.484;2024-01-30T10:49:34;16.03;;;7.83;;
4563;SDS011;2294;51.818;8.484;2024-01-30T10:52:01;14.17;;;8.17;;
4563;SDS011;2294;51.818;8.484;2024-01-30T10:54:30;15.20;;;7.57;;
4563;SDS011;2294;51.818;8.484;2024-01-30T10:56:59;12.50;;;7.27;;
4563;SDS011;2294;51.818;8.484;2024-01-30T10:59:28;11.87;;;7.60;;
4563;SDS011;2294;51.818;8.484;2024-01-30T11:01:56;18.17;;;8.43;;
4563;SDS011;2294;51.818;8.484;2024-01-30T11:04:24;14.27;;;8.10;;
4563;SDS011;2294;51.818;8.484;2024-01-30T11:06:51;11.60;;;6.83;;
4563;SDS011;2294;51.818;8.484;2024-01-30T11:09:19;20.07;;;8.03;;
4563;SDS011;2294;51.818;8.484;2024-01-30T11:11:50;14.53;;;9.23;;
4563;SDS011;2294;51.818;8.484;2024-01-30T11:14:23;14.93;;;7.73;;
4563;SDS011;2294;51.818;8.484;2024-01-30T11:16:51;19.00;;;7.73;;
4563;SDS011;2294;51.818;8.484;2024-01-30T11:19:22;15.60;;;7.20;;
4563;SDS011;2294;51.818;8.484;2024-01-30T11:21:50;12.33;;;7.10;;
4563;SDS011;2294;51.818;8.484;2024-01-30T11:24:19;13.10;;;7.13;;
4563;SDS011;2294;51.818;8.484;2024-01-30T11:26:47;15.20;;;7.73;;
4563;SDS011;2294;51.818;8.484;2024-01-30T11:29:15;11.57;;;8.07;;
4563;SDS011;2294;51.818;8.484;2024-01-30T11:31:52;12.90;;;8.43;;
4563;SDS011;2294;51.818;8.484;2024-01-30T11:34:20;14.10;;;8.33;;
4563;SDS011;2294;51.818;8.484;2024-01-30T11:36:50;13.20;;;7.60;;
4563;SDS011;2294;51.818;8.484;2024-01-30T11:39:20;10.70;;;7.60;;
4563;SDS011;2294;51.818;8.484;2024-01-30T11:41:48;16.70;;;6.43;;
4563;SDS011;2294;51.818;8.484;2024-01-30T11:44:17;18.03;;;7.70;;
4563;SDS011;2294;51.818;8.484;2024-01-30T11:46:45;13.70;;;7.10;;
4563;SDS011;2294;51.818;8.484;2024-01-30T11:49:14;11.97;;;7.60;;
4563;SDS011;2294;51.818;8.484;2024-01-30T11:51:41;13.60;;;7.63;;
4563;SDS011;2294;51.818;8.484;2024-01-30T11:54:08;11.10;;;7.10;;
4563;SDS011;2294;51.818;8.484;2024-01-30T11:56:36;12.60;;;6.83;;
4563;SDS011;2294;51.818;8.484;2024-01-30T11:59:03;11.17;;;6.80;;
4563;SDS011;2294;51.818;8.484;2024-01-30T12:01:30;9.80;;;6.97;;
4563;SDS011;2294;51.818;8.484;2024-01-30T12:03:58;10.90;;;5.77;;
4563;SDS011;2294;51.818;8.484;2024-01-30T12:06:26;10.80;;;6.90;;
4563;SDS011;2294;51.818;8.484;2024-01-30T12:08:57;10.20;;;5.80;;
4563;SDS011;2294;51.818;8.484;2024-01-30T12:11:24;11.53;;;6.00;;
4563;SDS011;2294;51.818;8.484;2024-01-30T12:13:52;9.93;;;6.10;;
4563;SDS011;2294;51.818;8.484;2024-01-30T12:16:19;27.10;;;7.20;;
4563;SDS011;2294;51.818;8.484;2024-01-30T12:18:46;11.67;;;6.00;;
4563;SDS011;2294;51.818;8.484;2024-01-30T12:21:15;12.90;;;6.30;;
4563;SDS011;2294;51.818;8.484;2024-01-30T12:23:44;12.93;;;6.50;;
4563;SDS011;2294;51.818;8.484;2024-01-30T12:26:11;14.70;;;6.10;;
4563;SDS011;2294;51.818;8.484;2024-01-30T12:28:47;14.23;;;6.20;;
4563;SDS011;2294;51.818;8.484;2024-01-30T12:31:15;12.53;;;5.80;;
4563;SDS011;2294;51.818;8.484;2024-01-30T12:33:42;14.30;;;6.43;;
4563;SDS011;2294;51.818;8.484;2024-01-30T12:36:09;20.80;;;5.13;;
4563;SDS011;2294;51.818;8.484;2024-01-30T12:38:38;12.83;;;5.10;;
4563;SDS011;2294;51.818;8.484;2024-01-30T12:41:08;8.67;;;4.50;;
4563;SDS011;2294;51.818;8.484;2024-01-30T12:43:35;11.63;;;5.03;;
4563;SDS011;2294;51.818;8.484;2024-01-30T12:46:02;7.90;;;4.10;;
4563;SDS011;2294;51.818;8.484;2024-01-30T12:48:30;12.10;;;4.90;;
4563;SDS011;2294;51.818;8.484;2024-01-30T12:50:58;6.57;;;4.50;;
4563;SDS011;2294;51.818;8.484;2024-01-30T12:53:26;6.37;;;3.90;;
4563;SDS011;2294;51.818;8.484;2024-01-30T12:55:53;6.90;;;4.03;;
4563;SDS011;2294;51.818;8.484;2024-01-30T12:58:24;11.50;;;4.90;;
4563;SDS011;2294;51.818;8.484;2024-01-30T13:00:51;10.33;;;4.83;;
4563;SDS011;2294;51.818;8.484;2024-01-30T13:03:19;6.20;;;4.23;;
4563;SDS011;2294;51.818;8.484;2024-01-30T13:05:46;5.87;;;3.30;;
4563;SDS011;2294;51.818;8.484;2024-01-30T13:08:13;12.63;;;5.20;;
4563;SDS011;2294;51.818;8.484;2024-01-30T13:10:40;7.60;;;5.10;;
4563;SDS011;2294;51.818;8.484;2024-01-30T13:13:07;12.30;;;4.90;;
4563;SDS011;2294;51.818;8.484;2024-01-30T13:15:37;13.77;;;5.90;;
4563;SDS011;2294;51.818;8.484;2024-01-30T13:18:04;14.17;;;4.13;;
4563;SDS011;2294;51.818;8.484;2024-01-30T13:20:32;11.80;;;4.77;;
4563;SDS011;2294;51.818;8.484;2024-01-30T13:22:59;10.03;;;5.27;;
4563;SDS011;2294;51.818;8.484;2024-01-30T13:25:26;12.53;;;6.20;;
4563;SDS011;2294;51.818;8.484;2024-01-30T13:27:53;9.60;;;5.63;;
4563;SDS011;2294;51.818;8.484;2024-01-30T13:30:21;15.20;;;5.27;;
4563;SDS011;2294;51.818;8.484;2024-01-30T13:32:49;14.50;;;4.93;;
4563;SDS011;2294;51.818;8.484;2024-01-30T13:35:16;7.60;;;5.00;;
4563;SDS011;2294;51.818;8.484;2024-01-30T13:37:43;10.00;;;5.60;;
4563;SDS011;2294;51.818;8.484;2024-01-30T13:40:12;9.40;;;4.80;;
4563;SDS011;2294;51.818;8.484;2024-01-30T13:42:41;10.67;;;4.80;;
4563;SDS011;2294;51.818;8.484;2024-01-30T13:45:08;12.60;;;5.00;;
4563;SDS011;2294;51.818;8.484;2024-01-30T13:47:36;11.67;;;5.17;;
4563;SDS011;2294;51.818;8.484;2024-01-30T13:50:04;8.67;;;4.83;;
4563;SDS011;2294;51.818;8.484;2024-01-30T13:52:32;10.17;;;5.80;;
4563;SDS011;2294;51.818;8.484;2024-01-30T13:55:00;10.47;;;4.80;;
4563;SDS011;2294;51.818;8.484;2024-01-30T13:57:27;9.63;;;4.93;;
4563;SDS011;2294;51.818;8.484;2024-01-30T13:59:58;19.10;;;5.43;;
4563;SDS011;2294;51.818;8.484;2024-01-30T14:02:25;9.40;;;5.30;;
4563;SDS011;2294;51.818;8.484;2024-01-30T14:04:52;13.83;;;5.80;;
4563;SDS011;2294;51.818;8.484;2024-01-30T14:07:21;12.47;;;5.90;;
4563;SDS011;2294;51.818;8.484;2024-01-30T14:09:48;8.57;;;5.40;;
4563;SDS011;2294;51.818;8.484;2024-01-30T14:12:15;17.30;;;5.97;;
4563;SDS011;2294;51.818;8.484;2024-01-30T14:14:42;18.37;;;6.77;;
4563;SDS011;2294;51.818;8.484;2024-01-30T14:17:09;13.13;;;6.47;;
4563;SDS011;2294;51.818;8.484;2024-01-30T14:19:37;15.93;;;6.23;;
4563;SDS011;2294;51.818;8.484;2024-01-30T14:22:04;8.43;;;5.00;;
4563;SDS011;2294;51.818;8.484;2024-01-30T14:24:33;13.37;;;5.67;;
4563;SDS011;2294;51.818;8.484;2024-01-30T14:27:02;14.17;;;6.40;;
4563;SDS011;2294;51.818;8.484;2024-01-30T14:29:29;9.60;;;5.70;;
4563;SDS011;2294;51.818;8.484;2024-01-30T14:31:56;20.53;;;6.33;;
4563;SDS011;2294;51.818;8.484;2024-01-30T14:34:23;16.77;;;6.03;;
4563;SDS011;2294;51.818;8.484;2024-01-30T14:36:51;9.90;;;5.40;;
4563;SDS011;2294;51.818;8.484;2024-01-30T14:39:18;12.60;;;5.33;;
4563;SDS011;2294;51.818;8.484;2024-01-30T14:41:46;18.00;;;5.27;;
4563;SDS011;2294;51.818;8.484;2024-01-30T14:44:14;17.70;;;4.87;;
4563;SDS011;2294;51.818;8.484;2024-01-30T14:46:41;15.00;;;5.20;;
4563;SDS011;2294;51.818;8.484;2024-01-30T14:49:08;8.60;;;4.53;;
4563;SDS011;2294;51.818;8.484;2024-01-30T14:51:35;10.20;;;4.97;;
4563;SDS011;2294;51.818;8.484;2024-01-30T14:54:03;15.00;;;5.03;;
4563;SDS011;2294;51.818;8.484;2024-01-30T14:56:30;14.43;;;6.40;;
4563;SDS011;2294;51.818;8.484;2024-01-30T14:58:59;14.73;;;5.43;;
4563;SDS011;2294;51.818;8.484;2024-01-30T15:01:26;9.73;;;4.47;;
4563;SDS011;2294;51.818;8.484;2024-01-30T15:03:54;10.53;;;5.30;;
4563;SDS011;2294;51.818;8.484;2024-01-30T15:06:21;7.70;;;5.10;;